Lucas, KS (67648)

5:50 PM CDT on August 04, 2015 (GMT -0500)
Craven / Shiroky Farm | | Change Station
CLOSE
Current Station
Personal Weather Station
Location: Luray, KS
Elevation: 1730 ft
Nearby Weather Stations
Active Advisory: Severe Thunderstorm Watch

Elev 1730 ft 39.02 °N, 98.67 °W | Updated 40 seconds ago

Partly Cloudy
Partly Cloudy
84.9 °F
Feels Like 88 °F
N
3.0
Wind Variable Wind from South
Gusts 13.0 mph

Today
High -- | Low -- °F
--% Chance of Precip.
Yesterday
High -- | Low -- °F
Precip. -- in
6:37 AM 8:42 PM
Waning Gibbous, 73% visible
Pressure 29.85 in
Visibility 10.0 miles
Clouds Few 4300 ft
Heat Index 88 °F
Dew Point 68 °F
Humidity 56%
Rainfall 0.00 in
Snow Depth Not available.
UV 6 out of 12
Pollen 7.00 out of 12
Air Quality Not available.
Flu Activity Not available.
METAR KRSL 042153Z AUTO 17014G22KT 10SM FEW043 30/18 A2990 RMK AO2 SLP106 T03000178

More Conditions Fewer Conditions

Pressure 29.85 in
Visibility 10.0 miles
Clouds Few 4300 ft
Heat Index 88 °F
Dew Point 68 °F
Humidity 56%
Rainfall 0.00 in
Snow Depth Not available.
UV 6 out of 12
Pollen 7.00 out of 12
Air Quality Not available.
Flu Activity Not available.
METAR KRSL 042153Z AUTO 17014G22KT 10SM FEW043 30/18 A2990 RMK AO2 SLP106 T03000178

More Conditions Fewer Conditions

10-Day Weather Forecast

×

Almanac

Astronomy

Aug. 04, 2015 Rise Set
Actual Time
Civil Twilight
Nautical Twilight
Astronomical Twilight
Moon
Length of Visible Light
Length of Day
Tomorrow will be .
, % of the Moon is Illuminated

Today's Extremes

State Highs State Lows

Community

WunderPhotos

Upload Photos

1,844,011 photos uploaded!

WunderBlogs® & News

Nearby

Air Quality

  Air Quality AQ Index Pollutant
Not available.

Snow Depth

Station Depth Elevation

Earthquake Activity

City Distance Mag. Time & Date
Minimum magnitude displayed is 2.5.

Coastal Water Temperatures

Place Temperature

Stations

Nearby Weather Stations

Station Location Temp. Windchill Dew Point Humidity Wind Precip. Elev Updated Type
                   
Severe Thunderstorm Watch
Statement as of 5:43 PM CDT on August 04, 2015

Severe Thunderstorm Watch 471 remains in effect until 1100 PM CDT
for the following locations


KS
. Kansas counties included are

Barber Barton Clark
Comanche Edwards Finney
Ford gray Haskell
Hodgeman Kiowa Meade
Pawnee Pratt Russell
Scott Seward Stafford